Time;durP1;ratioP1;P1;durP2;ratioP2;P2;SDS_P1;SDS_P2;PMS_P1;PMS_P2;Temp;Humidity;BMP_temperature;BMP_pressure;BME280_temperature;BME280_humidity;BME280_pressure;Samples;Min_cycle;Max_cycle;Signal;HPM_P1;HPM_P2
2022/03/23 00:00:43;;;;;;;0.10;0.10;;;;;;;11.49;52.99;102076.50;7354164;19;20014;-64
2022/03/23 00:03:09;;;;;;;0.00;0.00;;;;;;;11.43;53.04;102069.53;7321986;19;20015;-64
2022/03/23 00:05:38;;;;;;;0.00;0.00;;;;;;;11.40;53.20;102078.28;7352943;19;20480;-63
2022/03/23 00:08:03;;;;;;;0.00;0.00;;;;;;;11.35;53.23;102071.31;7350471;19;20045;-63
2022/03/23 00:10:30;;;;;;;0.00;0.00;;;;;;;11.29;53.34;102073.97;7353523;19;20011;-64
2022/03/23 00:12:57;;;;;;;0.00;0.00;;;;;;;11.27;53.30;102087.03;7352024;19;20034;-62
2022/03/23 00:15:23;;;;;;;0.00;0.00;;;;;;;11.24;53.20;102083.56;7348194;19;21830;-63
2022/03/23 00:17:48;;;;;;;0.10;0.10;;;;;;;11.22;53.30;102080.09;7352819;19;20011;-64
2022/03/23 00:20:15;;;;;;;0.00;0.00;;;;;;;11.13;53.03;102076.63;7357066;19;20011;-64
2022/03/23 00:22:40;;;;;;;0.00;0.00;;;;;;;11.17;53.31;102080.97;7358626;19;20041;-63
2022/03/23 00:25:08;;;;;;;0.00;0.00;;;;;;;11.15;53.45;102085.34;7360981;19;20007;-64
2022/03/23 00:27:34;;;;;;;;;;;;;;;11.13;51.58;102083.59;7357006;19;20003;-64
2022/03/23 00:29:59;;;;;;;0.00;0.00;;;;;;;11.08;52.71;102086.22;7354202;19;19926;-62
2022/03/23 00:32:25;;;;;;;0.00;0.00;;;;;;;11.04;53.00;102081.88;7190442;19;22852;-64
2022/03/23 00:34:50;;;;;;;0.00;0.00;;;;;;;11.01;53.04;102089.75;1208690;19;10002211;-64
2022/03/23 00:37:16;;;;;;;0.00;0.00;;;;;;;10.98;52.91;102091.47;7352132;19;20013;-64
2022/03/23 00:39:41;;;;;;;0.00;0.00;;;;;;;10.95;52.80;102094.09;7341171;19;20558;-64
2022/03/23 00:42:07;;;;;;;0.00;0.00;;;;;;;10.90;52.28;102092.38;7353127;19;20046;-64
2022/03/23 00:44:32;;;;;;;0.00;0.00;;;;;;;10.86;52.47;102097.59;7353528;19;20038;-62
2022/03/23 00:46:58;;;;;;;0.00;0.00;;;;;;;10.80;53.58;102100.25;7349781;19;20022;-64
2022/03/23 00:49:23;;;;;;;0.00;0.00;;;;;;;10.77;53.10;102105.47;7360959;19;20014;-65
2022/03/23 00:51:53;;;;;;;0.00;0.00;;;;;;;10.72;54.00;102107.19;7354762;19;20031;-64
2022/03/23 00:54:22;;;;;;;0.00;0.00;;;;;;;10.65;53.97;102096.75;7358178;19;20778;-64
2022/03/23 00:56:48;;;;;;;0.00;0.00;;;;;;;10.62;53.93;102107.19;7359195;19;22222;-64
2022/03/23 00:59:13;;;;;;;0.00;0.00;;;;;;;10.58;54.00;102105.47;7355726;19;20022;-64
2022/03/23 01:01:39;;;;;;;0.00;0.00;;;;;;;10.55;53.97;102099.38;7360931;19;20039;-63
2022/03/23 01:04:06;;;;;;;0.00;0.00;;;;;;;10.53;53.61;102107.19;7355034;19;20010;-64
2022/03/23 01:06:32;;;;;;;0.00;0.00;;;;;;;10.51;54.60;102108.94;7355628;19;20023;-64
2022/03/23 01:08:57;;;;;;;0.00;0.00;;;;;;;10.34;54.09;102087.16;7355711;19;20385;-64
2022/03/23 01:11:26;;;;;;;0.00;0.00;;;;;;;10.43;53.89;102110.69;7357660;19;20970;-64
2022/03/23 01:13:51;;;;;;;0.08;0.08;;;;;;;10.38;54.05;102109.81;7358816;19;20022;-64
2022/03/23 01:16:17;;;;;;;0.00;0.00;;;;;;;10.30;54.09;102099.38;7363852;19;20026;-65
2022/03/23 01:18:43;;;;;;;0.00;0.00;;;;;;;10.31;54.54;102108.06;7350490;19;20078;-64
2022/03/23 01:21:08;;;;;;;0.00;0.00;;;;;;;10.27;54.71;102108.94;7360035;19;20022;-64
2022/03/23 01:23:34;;;;;;;0.00;0.00;;;;;;;10.20;54.23;102096.72;7355109;19;20010;-64
2022/03/23 01:25:59;;;;;;;0.00;0.00;;;;;;;10.19;54.15;102110.63;7360911;19;20027;-63
2022/03/23 01:28:25;;;;;;;0.00;0.00;;;;;;;10.14;54.60;102097.59;7354823;19;20011;-63
2022/03/23 01:30:51;;;;;;;0.00;0.00;;;;;;;10.11;55.03;102108.00;7355844;19;20040;-63
2022/03/23 01:33:16;;;;;;;0.00;0.00;;;;;;;10.08;54.69;102094.94;7358910;19;20121;-65
2022/03/23 01:35:42;;;;;;;0.10;0.10;;;;;;;10.08;53.71;102105.38;7349677;19;20018;-64
2022/03/23 01:38:08;;;;;;;0.00;0.00;;;;;;;10.09;53.85;102100.19;7357694;19;20035;-64
2022/03/23 01:40:33;;;;;;;0.00;0.00;;;;;;;10.10;53.09;102096.69;7354933;19;20006;-65
2022/03/23 01:42:59;;;;;;;0.00;0.00;;;;;;;10.13;53.20;102094.06;7358896;19;20022;-64
2022/03/23 01:45:24;;;;;;;0.00;0.00;;;;;;;10.19;53.26;102097.56;7354040;19;20010;-64
2022/03/23 01:47:50;;;;;;;0.00;0.00;;;;;;;10.26;52.80;102096.75;7352279;19;20018;-64
2022/03/23 01:50:15;;;;;;;0.00;0.00;;;;;;;10.31;52.55;102089.78;7356679;19;20009;-63
2022/03/23 01:52:41;;;;;;;0.00;0.00;;;;;;;10.37;52.70;102089.78;7354107;19;20015;-64
2022/03/23 01:55:13;;;;;;;0.00;0.00;;;;;;;10.43;52.40;102089.78;7353156;19;20087;-65
2022/03/23 01:57:40;;;;;;;0.00;0.00;;;;;;;10.49;52.08;102088.91;7358240;19;20015;-64
2022/03/23 02:00:07;;;;;;;0.00;0.00;;;;;;;10.54;52.21;102088.06;7355165;19;20011;-64
2022/03/23 02:02:32;;;;;;;0.10;0.10;;;;;;;10.58;52.00;102081.06;7361174;19;20070;-64
2022/03/23 02:04:58;;;;;;;0.00;0.00;;;;;;;10.61;52.45;102083.69;7365024;19;20029;-64
2022/03/23 02:07:24;;;;;;;0.00;0.00;;;;;;;10.65;52.81;102096.75;7359889;19;20326;-65
2022/03/23 02:09:50;;;;;;;0.00;0.00;;;;;;;10.68;52.58;102097.63;7361374;19;20013;-64
2022/03/23 02:12:16;;;;;;;0.00;0.00;;;;;;;10.67;52.64;102099.38;7354281;19;20010;-64
2022/03/23 02:14:42;;;;;;;0.00;0.00;;;;;;;10.64;53.16;102100.25;7343959;19;20019;-64
2022/03/23 02:17:08;;;;;;;0.00;0.00;;;;;;;10.65;52.63;102106.34;7355504;19;20013;-63
2022/03/23 02:19:35;;;;;;;0.00;0.00;;;;;;;10.62;52.35;102107.19;7358090;19;20528;-64
2022/03/23 02:22:01;;;;;;;0.00;0.00;;;;;;;10.57;52.57;102108.06;7356757;19;20118;-64
2022/03/23 02:24:28;;;;;;;0.00;0.00;;;;;;;10.46;52.88;102099.38;7354237;19;20018;-64
2022/03/23 02:27:08;;;;;;;0.00;0.00;;;;;;;10.50;52.25;102120.28;2503707;19;10022433;-64
2022/03/23 02:29:34;;;;;;;0.00;0.00;;;;;;;10.43;52.74;102110.69;6536917;19;10000422;-64
2022/03/23 02:32:01;;;;;;;0.00;0.00;;;;;;;10.35;52.57;102112.44;7352831;19;20034;-63
2022/03/23 02:34:27;;;;;;;0.00;0.00;;;;;;;10.27;52.78;102104.56;7360238;19;20007;-64
2022/03/23 02:36:53;;;;;;;0.00;0.00;;;;;;;10.18;52.38;102114.09;7349465;19;20014;-63
2022/03/23 02:39:18;;;;;;;0.00;0.00;;;;;;;10.06;52.78;102097.56;7355350;19;20086;-64
2022/03/23 02:41:44;;;;;;;0.00;0.00;;;;;;;10.05;53.32;102106.25;7354690;19;20044;-65
2022/03/23 02:44:14;;;;;;;0.00;0.00;;;;;;;10.00;53.36;102100.16;7357239;19;20039;-64
2022/03/23 02:46:39;;;;;;;0.00;0.00;;;;;;;9.97;53.45;102094.06;7357653;19;20479;-64
2022/03/23 02:49:05;;;;;;;0.00;0.00;;;;;;;9.89;53.75;102091.44;7350194;19;20014;-64
2022/03/23 02:51:31;;;;;;;0.00;0.00;;;;;;;9.91;54.14;102100.13;7363213;19;20026;-64
2022/03/23 03:02:34;;;;;;;0.00;0.00;;;;;;;9.91;53.96;102109.69;7256548;19;2004606;-64
2022/03/23 03:05:00;;;;;;;0.00;0.00;;;;;;;9.88;54.13;102105.34;7350675;19;20060;-64
2022/03/23 03:07:25;;;;;;;0.03;0.03;;;;;;;9.86;54.06;102107.06;7354851;19;20018;-63
2022/03/23 03:09:51;;;;;;;0.00;0.00;;;;;;;9.83;53.55;102099.22;7347745;19;20015;-62
2022/03/23 03:12:17;;;;;;;0.00;0.00;;;;;;;9.79;53.80;102100.13;7349644;19;20034;-63
2022/03/23 03:14:43;;;;;;;0.00;0.00;;;;;;;9.74;53.47;102107.91;7349598;19;20055;-64
2022/03/23 03:17:08;;;;;;;0.00;0.00;;;;;;;9.69;53.63;102098.34;7353908;19;20467;-64
2022/03/23 03:19:37;;;;;;;0.00;0.00;;;;;;;9.69;53.65;102106.16;7352574;19;20043;-63
2022/03/23 03:22:04;;;;;;;0.00;0.00;;;;;;;9.64;53.82;102110.50;7348386;19;20007;-64
2022/03/23 03:24:30;;;;;;;0.00;0.00;;;;;;;9.59;53.46;102107.88;7351764;19;20357;-64
2022/03/23 03:26:55;;;;;;;0.00;0.00;;;;;;;9.54;53.98;102107.84;7348602;19;20017;-64
2022/03/23 03:29:23;;;;;;;0.00;0.00;;;;;;;9.51;54.10;102105.22;7350260;19;20029;-64
2022/03/23 03:31:48;;;;;;;0.00;0.00;;;;;;;9.46;53.93;102101.72;7349684;19;20010;-64
2022/03/23 03:34:14;;;;;;;0.00;0.00;;;;;;;9.42;54.26;102105.16;7353800;19;20036;-64
2022/03/23 03:36:41;;;;;;;0.00;0.00;;;;;;;9.36;54.55;102099.94;7345580;19;20014;-64
2022/03/23 03:39:07;;;;;;;0.10;0.10;;;;;;;9.31;54.66;102102.50;7351922;19;20043;-64
2022/03/23 03:41:33;;;;;;;0.00;0.00;;;;;;;9.29;54.63;102109.47;7356660;19;20048;-63
2022/03/23 03:43:58;;;;;;;0.00;0.00;;;;;;;9.17;54.57;102093.75;7354463;19;20023;-64
2022/03/23 03:46:24;;;;;;;0.00;0.00;;;;;;;9.21;54.87;102105.06;7356718;19;20038;-64
2022/03/23 03:48:49;;;;;;;0.00;0.00;;;;;;;9.17;54.98;102100.69;7349528;19;20133;-64
2022/03/23 03:51:15;;;;;;;0.05;0.05;;;;;;;9.16;54.83;102106.78;7350439;19;20014;-64
2022/03/23 03:53:40;;;;;;;0.00;0.00;;;;;;;9.12;55.21;102110.22;7346033;19;20065;-63
2022/03/23 03:56:07;;;;;;;0.10;0.10;;;;;;;9.06;55.33;102106.72;7355892;19;20014;-64
2022/03/23 03:58:32;;;;;;;0.00;0.00;;;;;;;9.06;55.21;102103.25;7349666;19;20048;-64
2022/03/23 04:00:58;;;;;;;0.00;0.00;;;;;;;9.02;55.30;102104.97;7351580;19;20544;-64
2022/03/23 04:03:23;;;;;;;0.00;0.00;;;;;;;8.91;55.67;102114.44;7342950;19;20534;-63
2022/03/23 04:05:49;;;;;;;0.00;0.00;;;;;;;8.96;55.62;102110.13;7342847;19;20014;-64
2022/03/23 04:08:14;;;;;;;0.00;0.00;;;;;;;8.89;54.94;102112.69;7355286;19;20372;-64
2022/03/23 04:10:40;;;;;;;0.00;0.00;;;;;;;8.91;55.39;102132.66;7344890;19;20031;-64
2022/03/23 04:13:08;;;;;;;0.00;0.00;;;;;;;8.89;55.18;102121.38;7355682;19;20018;-64
2022/03/23 04:15:35;;;;;;;0.00;0.00;;;;;;;8.84;55.44;102116.13;7355379;19;20010;-64
2022/03/23 04:18:01;;;;;;;0.00;0.00;;;;;;;8.74;55.46;102096.09;7353742;19;20042;-63
2022/03/23 04:20:26;;;;;;;0.00;0.00;;;;;;;8.78;55.68;102112.63;7354154;19;20089;-63
2022/03/23 04:22:51;;;;;;;0.10;0.10;;;;;;;8.76;55.30;102112.59;7363848;19;20022;-64
2022/03/23 04:25:18;;;;;;;0.05;0.05;;;;;;;8.73;55.63;102116.94;7364681;19;20014;-64
2022/03/23 04:27:49;;;;;;;0.00;0.00;;;;;;;8.70;55.73;102119.50;7362976;19;20089;-63
2022/03/23 04:30:17;;;;;;;0.00;0.00;;;;;;;8.66;56.03;102130.75;7365446;19;20063;-63
2022/03/23 04:32:47;;;;;;;0.00;0.00;;;;;;;8.62;55.49;102123.75;7365642;19;20477;-64
2022/03/23 04:35:13;;;;;;;0.10;0.10;;;;;;;8.58;56.07;102123.75;7363703;19;20471;-64
2022/03/23 04:37:39;;;;;;;0.00;0.00;;;;;;;8.56;55.66;102141.06;7367498;19;20482;-64
2022/03/23 04:40:05;;;;;;;0.00;0.00;;;;;;;8.52;55.61;102128.91;7366094;19;20034;-64
2022/03/23 04:42:31;;;;;;;0.00;0.00;;;;;;;8.49;55.61;102123.66;7365897;19;20757;-64
2022/03/23 04:44:56;;;;;;;0.00;0.00;;;;;;;8.47;56.05;102129.75;7358939;19;20021;-64
2022/03/23 04:47:22;;;;;;;0.00;0.00;;;;;;;8.43;55.70;102128.81;7361364;19;20022;-64
2022/03/23 04:49:48;;;;;;;0.00;0.00;;;;;;;8.41;56.18;102130.53;7364197;19;20145;-64
2022/03/23 04:52:14;;;;;;;0.10;0.10;;;;;;;8.38;55.88;102125.31;7364970;19;20034;-65
2022/03/23 04:54:39;;;;;;;0.00;0.00;;;;;;;8.35;56.21;102127.84;7360148;19;20015;-64
2022/03/23 04:57:05;;;;;;;0.00;0.00;;;;;;;8.33;56.05;102132.16;7361612;19;20082;-64
2022/03/23 04:59:30;;;;;;;0.00;0.00;;;;;;;8.30;56.21;102132.13;7363510;19;20024;-65
2022/03/23 05:01:56;;;;;;;0.00;0.00;;;;;;;8.27;56.69;102126.91;7357934;19;20006;-64
2022/03/23 05:04:21;;;;;;;0.10;0.10;;;;;;;8.24;57.01;102142.47;7363715;19;20013;-64
2022/03/23 05:06:47;;;;;;;0.00;0.00;;;;;;;8.19;56.58;102133.75;7362247;19;20018;-64
2022/03/23 05:09:13;;;;;;;0.10;0.10;;;;;;;8.19;56.99;102136.38;7362246;19;20015;-65
2022/03/23 05:11:38;;;;;;;0.00;0.00;;;;;;;8.17;56.94;102140.69;7364218;19;20003;-64
2022/03/23 05:14:03;;;;;;;0.00;0.00;;;;;;;8.11;56.85;102138.00;7358347;19;20332;-64
2022/03/23 05:16:29;;;;;;;0.10;0.10;;;;;;;8.11;56.44;102145.81;7327284;19;34391;-59
2022/03/23 05:18:55;;;;;;;0.00;0.00;;;;;;;8.05;56.02;102136.22;1094140;19;10001926;-64
2022/03/23 05:21:20;;;;;;;0.00;0.00;;;;;;;8.04;56.41;102142.28;7361581;19;20006;-65
2022/03/23 05:23:46;;;;;;;0.00;0.00;;;;;;;8.01;56.34;102150.94;7363550;19;20663;-63
2022/03/23 05:26:11;;;;;;;0.00;0.00;;;;;;;7.98;56.58;102147.41;7359060;19;20030;-64
2022/03/23 05:28:37;;;;;;;0.00;0.00;;;;;;;7.93;56.44;102136.97;7363766;19;20046;-63
2022/03/23 05:31:02;;;;;;;0.00;0.00;;;;;;;7.79;56.73;102129.00;7361696;19;20460;-64
2022/03/23 05:33:28;;;;;;;0.10;0.10;;;;;;;7.77;56.66;102124.63;7359368;19;20678;-61
2022/03/23 05:35:53;;;;;;;0.00;0.00;;;;;;;7.85;57.20;102149.00;7361484;19;20451;-64
2022/03/23 05:38:19;;;;;;;0.00;0.00;;;;;;;7.74;57.43;102135.00;7360937;19;20556;-65
2022/03/23 05:40:44;;;;;;;0.00;0.00;;;;;;;7.69;57.16;102123.66;7361926;19;20357;-64
2022/03/23 05:43:10;;;;;;;0.00;0.00;;;;;;;7.78;56.99;102147.19;7360992;19;20353;-64
2022/03/23 05:45:36;;;;;;;0.00;0.00;;;;;;;7.76;57.79;102154.09;7364501;19;20006;-65
2022/03/23 05:48:01;;;;;;;0.00;0.00;;;;;;;7.75;58.15;102157.53;7357672;19;20023;-65
2022/03/23 05:50:27;;;;;;;0.00;0.00;;;;;;;7.70;57.65;102146.22;7353753;19;20025;-64
2022/03/23 05:52:52;;;;;;;0.00;0.00;;;;;;;7.69;58.00;102157.47;7356704;19;20011;-65
2022/03/23 05:55:18;;;;;;;0.00;0.00;;;;;;;7.67;58.79;102154.00;7363353;19;20010;-65
2022/03/23 05:57:44;;;;;;;0.00;0.00;;;;;;;7.67;59.23;102157.47;7348240;19;20442;-64
2022/03/23 06:00:09;;;;;;;0.00;0.00;;;;;;;7.67;59.54;102159.19;7361251;19;20446;-64
2022/03/23 06:02:35;;;;;;;0.00;0.00;;;;;;;7.63;60.15;102160.88;7361721;19;20015;-64
2022/03/23 06:05:00;;;;;;;0.10;0.10;;;;;;;7.52;59.99;102144.25;7360323;19;20030;-64
2022/03/23 06:07:26;;;;;;;0.00;0.00;;;;;;;7.61;59.79;102160.00;7362762;19;20015;-65
2022/03/23 06:09:51;;;;;;;0.00;0.00;;;;;;;7.61;59.27;102164.31;7355219;19;20369;-64
2022/03/23 06:12:17;;;;;;;0.00;0.00;;;;;;;7.63;59.61;102173.88;7364566;19;20454;-64
2022/03/23 06:14:44;;;;;;;0.00;0.00;;;;;;;7.63;59.44;102165.19;7360331;19;20850;-64
2022/03/23 06:17:12;;;;;;;0.00;0.00;;;;;;;7.65;58.89;102171.28;7364192;19;20010;-64
2022/03/23 06:19:38;;;;;;;0.00;0.00;;;;;;;7.63;59.11;102175.59;7358425;19;20070;-64
2022/03/23 06:22:05;;;;;;;0.00;0.00;;;;;;;7.63;58.46;102176.47;7362725;19;20549;-64
2022/03/23 06:24:31;;;;;;;0.10;0.10;;;;;;;7.58;58.56;102177.25;7356296;19;20006;-64
2022/03/23 06:26:56;;;;;;;0.00;0.00;;;;;;;7.62;58.77;102186.84;7362128;19;20081;-64
2022/03/23 06:29:22;;;;;;;0.00;0.00;;;;;;;7.60;58.55;102184.22;7362230;19;20014;-64
2022/03/23 06:31:47;;;;;;;0.00;0.00;;;;;;;7.59;58.91;102179.00;7352557;19;20019;-64
2022/03/23 06:34:12;;;;;;;0.00;0.00;;;;;;;7.57;58.48;102188.50;7360600;19;20007;-64
2022/03/23 06:36:38;;;;;;;0.00;0.00;;;;;;;7.57;58.98;102188.50;7362886;19;20621;-63
2022/03/23 06:39:04;;;;;;;0.00;0.00;;;;;;;7.54;59.19;102189.34;7357721;19;20122;-64
2022/03/23 06:41:30;;;;;;;0.00;0.00;;;;;;;7.52;59.39;102196.25;7364263;19;20029;-64
2022/03/23 06:43:56;;;;;;;0.00;0.00;;;;;;;7.51;59.12;102200.56;7354235;19;20745;-64
2022/03/23 06:46:21;;;;;;;0.00;0.00;;;;;;;7.50;59.24;102187.53;7362665;19;20038;-65
2022/03/23 06:48:47;;;;;;;0.00;0.00;;;;;;;7.49;60.02;102186.66;7362105;19;20018;-64
2022/03/23 06:51:14;;;;;;;0.00;0.00;;;;;;;7.49;59.75;102199.66;7360263;19;20503;-63
2022/03/23 06:53:40;;;;;;;0.00;0.00;;;;;;;7.38;60.11;102172.66;7339215;19;20562;-64
2022/03/23 06:56:05;;;;;;;0.03;0.03;;;;;;;7.50;60.71;102191.03;7350499;19;20003;-64
2022/03/23 06:58:30;;;;;;;0.00;0.00;;;;;;;7.51;60.99;102192.78;7361282;19;20010;-64
2022/03/23 07:00:57;;;;;;;0.00;0.00;;;;;;;7.56;61.47;102197.19;7356832;19;20030;-62
2022/03/23 07:03:29;;;;;;;0.00;0.00;;;;;;;7.60;61.66;102196.34;5404297;19;10025264;-64
2022/03/23 07:05:54;;;;;;;0.00;0.00;;;;;;;7.63;61.54;102199.88;3247811;19;10001893;-64
2022/03/23 07:11:05;;;;;;;0.00;0.00;;;;;;;7.72;61.78;102196.53;7357588;19;20013;-63
2022/03/23 07:13:31;;;;;;;0.00;0.00;;;;;;;7.69;62.15;102183.47;7360593;19;20011;-64
2022/03/23 07:15:56;;;;;;;0.00;0.00;;;;;;;7.81;61.35;102204.44;7362916;19;20006;-64
2022/03/23 07:18:22;;;;;;;0.10;0.10;;;;;;;7.87;61.15;102203.66;7368924;19;20010;-63
2022/03/23 07:20:47;;;;;;;0.00;0.00;;;;;;;7.91;61.44;102203.72;7365151;19;20011;-64
2022/03/23 07:23:13;;;;;;;0.00;0.00;;;;;;;7.97;61.01;102213.31;7354943;19;20025;-64
2022/03/23 07:25:38;;;;;;;0.00;0.00;;;;;;;8.03;61.63;102215.97;7358097;19;20025;-64
2022/03/23 07:28:04;;;;;;;0.00;0.00;;;;;;;7.99;61.72;102204.66;7350685;19;20070;-63
2022/03/23 07:30:33;;;;;;;0.10;0.10;;;;;;;8.13;61.09;102227.38;7354695;19;20006;-65
2022/03/23 07:33:00;;;;;;;0.00;0.00;;;;;;;8.21;61.40;102223.09;7354303;19;20019;-64
2022/03/23 07:35:26;;;;;;;0.00;0.00;;;;;;;8.27;60.98;102226.69;7344318;19;20014;-64
2022/03/23 07:37:52;;;;;;;0.00;0.00;;;;;;;8.29;61.44;102226.69;7354722;19;20037;-64
2022/03/23 07:40:17;;;;;;;0.00;0.00;;;;;;;8.40;61.55;102232.03;7350326;19;20010;-64
2022/03/23 07:42:43;;;;;;;0.00;0.00;;;;;;;8.45;61.73;102233.84;7359077;19;20021;-64
2022/03/23 07:45:09;;;;;;;0.00;0.00;;;;;;;8.53;62.03;102234.78;7346550;19;20018;-64
2022/03/23 07:47:34;;;;;;;0.00;0.00;;;;;;;8.60;61.54;102240.06;7356844;19;21091;-64
2022/03/23 07:50:00;;;;;;;0.00;0.00;;;;;;;8.62;61.64;102233.13;7352419;19;20018;-63
2022/03/23 07:52:25;;;;;;;0.00;0.00;;;;;;;8.67;61.76;102231.44;7352175;19;20041;-64
2022/03/23 07:54:52;;;;;;;0.00;0.00;;;;;;;8.82;61.42;102252.44;7352689;19;20012;-64
2022/03/23 07:57:17;;;;;;;0.00;0.00;;;;;;;8.90;60.74;102255.97;7356027;19;20017;-64
2022/03/23 07:59:43;;;;;;;0.00;0.00;;;;;;;8.98;60.93;102253.47;7348602;19;20093;-63
2022/03/23 08:02:09;;;;;;;0.10;0.10;;;;;;;9.04;61.28;102259.59;7355509;19;20014;-63
2022/03/23 08:04:34;;;;;;;0.10;0.10;;;;;;;9.10;61.27;102246.59;7342291;19;20040;-64
2022/03/23 08:07:02;;;;;;;0.00;0.00;;;;;;;9.22;61.49;102256.25;7359272;19;20010;-64
2022/03/23 08:09:27;;;;;;;0.05;0.05;;;;;;;9.31;61.84;102258.06;7355449;19;20010;-64
2022/03/23 08:11:53;;;;;;;0.00;0.00;;;;;;;9.43;62.51;102258.16;7337045;19;20013;-63
2022/03/23 08:14:18;;;;;;;0.00;0.00;;;;;;;9.55;62.54;102263.44;7360387;19;20010;-64
2022/03/23 08:16:44;;;;;;;0.00;0.00;;;;;;;9.69;61.96;102258.31;7361662;19;20050;-64
2022/03/23 08:19:09;;;;;;;0.00;0.00;;;;;;;9.82;62.48;102251.44;7346615;19;20014;-64
2022/03/23 08:21:35;;;;;;;0.08;0.08;;;;;;;9.95;61.35;102245.41;7349490;19;20096;-64
2022/03/23 08:24:01;;;;;;;0.00;0.00;;;;;;;10.10;61.69;102250.69;7352984;19;20011;-64
2022/03/23 08:26:27;;;;;;;0.00;0.00;;;;;;;10.30;61.50;102257.78;7357183;19;20006;-64
2022/03/23 08:28:52;;;;;;;0.00;0.00;;;;;;;10.47;62.14;102258.69;7347996;19;20022;-64
2022/03/23 08:31:18;;;;;;;0.00;0.00;;;;;;;10.66;61.44;102259.59;7349095;19;20007;-64
2022/03/23 08:33:44;;;;;;;0.00;0.00;;;;;;;10.86;61.78;102262.25;7353476;19;20801;-64
2022/03/23 08:36:10;;;;;;;0.00;0.00;;;;;;;11.08;61.50;102268.34;7352502;19;20035;-64
2022/03/23 08:38:37;;;;;;;0.00;0.00;;;;;;;11.25;61.55;102263.13;7349275;19;20018;-65
2022/03/23 08:41:03;;;;;;;0.00;0.00;;;;;;;11.58;61.34;102270.06;7352113;19;20031;-64
2022/03/23 08:43:29;;;;;;;0.03;0.03;;;;;;;11.82;61.01;102269.19;7349734;19;20007;-65
2022/03/23 08:45:54;;;;;;;0.00;0.00;;;;;;;12.07;60.60;102275.22;7336575;19;20017;-64
2022/03/23 08:48:20;;;;;;;0.00;0.00;;;;;;;12.31;59.98;102274.22;7356996;19;20016;-65
2022/03/23 08:50:47;;;;;;;0.00;0.00;;;;;;;12.58;59.67;102268.84;7349350;19;20026;-64
2022/03/23 08:53:12;;;;;;;0.00;0.00;;;;;;;12.81;59.65;102275.69;7355745;19;20011;-64
2022/03/23 08:55:37;;;;;;;0.00;0.00;;;;;;;13.06;58.97;102271.13;7356817;19;20111;-65
2022/03/23 08:58:15;;;;;;;0.00;0.00;;;;;;;13.38;57.76;102269.16;6288967;19;10000983;-64
2022/03/23 09:00:41;;;;;;;0.00;0.00;;;;;;;13.58;57.18;102266.31;2739259;19;10001907;-64
2022/03/23 09:03:07;;;;;;;0.00;0.00;;;;;;;13.82;57.15;102265.19;7349295;19;20367;-63
2022/03/23 09:05:32;;;;;;;0.00;0.00;;;;;;;14.03;55.87;102270.19;7348741;19;20019;-64
2022/03/23 09:07:59;;;;;;;0.00;0.00;;;;;;;14.26;55.42;102272.53;7354508;19;20003;-64
2022/03/23 09:10:24;;;;;;;0.00;0.00;;;;;;;14.48;55.71;102270.50;7350828;19;20044;-64
2022/03/23 09:12:50;;;;;;;0.10;0.10;;;;;;;14.70;54.93;102268.47;7361246;19;20010;-64
2022/03/23 09:15:17;;;;;;;0.00;0.00;;;;;;;14.97;54.48;102266.31;7356967;19;20701;-64
2022/03/23 09:17:44;;;;;;;0.00;0.00;;;;;;;15.17;54.41;102274.75;7361411;19;20123;-64
2022/03/23 09:20:11;;;;;;;0.00;0.00;;;;;;;15.42;53.26;102269.94;7356859;19;20010;-64
2022/03/23 09:22:37;;;;;;;;;;;;;;;15.79;54.87;102275.41;7361925;19;20017;-64
2022/03/23 09:25:07;;;;;;;0.00;0.00;;;;;;;15.89;52.22;102269.97;7349395;19;20014;-64
2022/03/23 09:27:38;;;;;;;0.00;0.00;;;;;;;16.15;51.97;102272.94;7359229;19;20061;-64
2022/03/23 09:30:05;;;;;;;0.10;0.10;;;;;;;16.29;50.85;102270.88;7341341;19;20014;-64
2022/03/23 09:32:31;;;;;;;0.00;0.00;;;;;;;16.48;51.35;102281.91;7335017;19;20803;-63
2022/03/23 09:34:57;;;;;;;0.00;0.00;;;;;;;16.63;50.26;102280.69;7344967;19;20125;-64
2022/03/23 09:37:56;;;;;;;0.00;0.00;;;;;;;16.79;50.82;102286.50;7361101;19;20011;-64
2022/03/23 09:40:25;;;;;;;0.00;0.00;;;;;;;17.12;51.49;102284.81;7245713;19;2004450;-65
2022/03/23 09:42:53;;;;;;;0.00;0.00;;;;;;;17.26;50.04;102292.41;7357471;19;20837;-65
2022/03/23 09:45:35;;;;;;;0.08;0.08;;;;;;;17.46;48.99;102291.91;7353101;19;20016;-64
2022/03/23 09:48:05;;;;;;;0.00;0.00;;;;;;;17.70;49.08;102299.19;7356963;19;20006;-65
2022/03/23 09:50:32;;;;;;;0.00;0.00;;;;;;;17.88;48.62;102298.69;7337820;19;20102;-65
2022/03/23 09:52:59;;;;;;;0.00;0.00;;;;;;;18.07;47.67;102298.19;7356892;19;20007;-64
2022/03/23 09:55:24;;;;;;;0.00;0.00;;;;;;;18.12;46.84;102269.84;7357741;19;20343;-64
2022/03/23 09:57:54;;;;;;;0.10;0.10;;;;;;;18.42;46.72;102284.78;7353611;19;20363;-65
2022/03/23 10:00:20;;;;;;;0.00;0.00;;;;;;;18.48;45.80;102288.16;7358709;19;20018;-64
2022/03/23 10:02:57;;;;;;;0.00;0.00;;;;;;;18.70;47.07;102283.97;7354188;19;20019;-64
2022/03/23 10:05:42;;;;;;;;;;;;;;;18.93;48.74;102293.84;7330833;19;20015;-65
2022/03/23 10:08:43;;;;;;;0.10;0.10;;;;;;;19.10;47.29;102288.84;7344089;19;19922;-64
2022/03/23 10:11:29;;;;;;;0.00;0.00;;;;;;;19.28;47.36;102286.50;7229638;19;2004031;-65
2022/03/23 10:14:43;;;;;;;0.00;0.00;;;;;;;19.50;46.94;102286.63;7352770;19;20024;-65
2022/03/23 10:17:50;;;;;;;0.00;0.00;;;;;;;19.74;46.69;102285.81;7246231;19;2005853;-65
2022/03/23 10:20:15;;;;;;;0.03;0.03;;;;;;;19.81;44.25;102287.31;7254715;19;2004143;-64
2022/03/23 10:22:51;;;;;;;0.10;0.10;;;;;;;20.05;44.87;102282.03;7355758;19;20412;-65
2022/03/23 10:25:20;;;;;;;0.10;0.10;;;;;;;20.13;43.17;102285.28;7352080;19;20024;-66
2022/03/23 10:27:47;;;;;;;0.00;0.00;;;;;;;20.19;43.33;102293.00;7353490;19;20744;-64
2022/03/23 10:30:15;;;;;;;0.10;0.10;;;;;;;20.34;42.61;102289.78;7329247;19;20018;-65
2022/03/23 10:32:42;;;;;;;0.00;0.00;;;;;;;20.36;42.57;102269.34;7356337;19;20026;-62
2022/03/23 10:35:16;;;;;;;0.00;0.00;;;;;;;20.68;43.56;102285.81;7363237;19;20026;-64
2022/03/23 10:37:43;;;;;;;0.00;0.00;;;;;;;20.76;42.41;102294.34;7366079;19;20889;-64
2022/03/23 10:40:17;;;;;;;0.00;0.00;;;;;;;20.98;42.07;102292.56;7367167;19;20026;-64
2022/03/23 10:42:44;;;;;;;0.10;0.10;;;;;;;21.10;41.75;102292.97;7350985;19;20010;-65
2022/03/23 10:45:17;;;;;;;0.10;0.10;;;;;;;21.34;41.63;102292.00;7357518;19;20006;-66
2022/03/23 10:47:45;;;;;;;0.00;0.00;;;;;;;21.54;41.12;102292.91;7351911;19;20011;-65
2022/03/23 10:50:22;;;;;;;0.00;0.00;;;;;;;21.79;40.05;102303.31;7360391;19;20357;-64
2022/03/23 10:53:04;;;;;;;0.00;0.00;;;;;;;21.97;41.04;102291.88;7355846;19;20840;-65
2022/03/23 10:55:34;;;;;;;0.05;0.05;;;;;;;22.10;39.46;102294.84;1142329;19;10002173;-65
2022/03/23 10:57:59;;;;;;;0.00;0.00;;;;;;;22.30;39.66;102302.78;7352956;19;20018;-65
2022/03/23 11:00:34;;;;;;;0.10;0.10;;;;;;;22.61;40.35;102293.34;7325935;19;20154;-65
2022/03/23 11:03:04;;;;;;;0.00;0.00;;;;;;;22.78;39.70;102294.28;7355602;19;20014;-66
2022/03/23 11:05:43;;;;;;;0.00;0.00;;;;;;;23.01;39.69;102301.19;7354003;19;20467;-64
2022/03/23 11:08:13;;;;;;;0.00;0.00;;;;;;;23.05;37.97;102302.75;7353763;19;20014;-65
2022/03/23 11:16:18;;;;;;;0.00;0.00;;;;;;;23.79;37.89;102291.88;7348388;19;20009;-64
2022/03/23 11:18:44;;;;;;;0.00;0.00;;;;;;;23.95;36.72;102293.72;7365538;19;20458;-64
2022/03/23 11:21:10;;;;;;;0.10;0.10;;;;;;;24.11;36.46;102286.59;7360632;19;20009;-64
2022/03/23 11:23:37;;;;;;;0.10;0.10;;;;;;;24.29;35.77;102284.75;7359834;19;20011;-64
2022/03/23 11:26:07;;;;;;;0.10;0.10;;;;;;;24.45;36.44;102277.63;7366515;19;20006;-63
2022/03/23 11:28:39;;;;;;;0.00;0.00;;;;;;;24.67;35.71;102285.28;7360739;19;20009;-64
2022/03/23 11:31:07;;;;;;;0.00;0.00;;;;;;;24.79;35.34;102275.72;7327815;19;20387;-63
2022/03/23 11:33:34;;;;;;;0.00;0.00;;;;;;;24.90;34.90;102275.97;7349052;19;20007;-65
2022/03/23 11:36:05;;;;;;;0.10;0.10;;;;;;;25.06;34.94;102263.44;7355371;19;20005;-64
2022/03/23 11:38:33;;;;;;;0.00;0.00;;;;;;;25.27;34.35;102276.50;7354786;19;20481;-64
2022/03/23 11:40:59;;;;;;;0.05;0.05;;;;;;;25.45;33.51;102277.22;7356571;19;20585;-62
2022/03/23 11:43:27;;;;;;;0.10;0.10;;;;;;;25.48;33.52;102261.81;7357462;19;20006;-64
2022/03/23 11:45:54;;;;;;;0.00;0.00;;;;;;;25.63;33.09;102276.94;7347938;19;20051;-64